createdAt,value
2018-08-09T00:00:55.381Z,25.70
2018-08-09T00:03:26.564Z,25.70
2018-08-09T00:05:57.735Z,25.80
2018-08-09T00:08:28.956Z,25.80
2018-08-09T00:11:00.122Z,25.80
2018-08-09T00:13:31.532Z,25.80
2018-08-09T00:16:02.929Z,25.80
2018-08-09T00:18:34.465Z,25.70
2018-08-09T00:21:05.984Z,25.70
2018-08-09T00:23:37.045Z,25.70
2018-08-09T00:26:08.309Z,25.70
2018-08-09T00:28:39.428Z,25.70
2018-08-09T00:31:10.620Z,25.60
2018-08-09T00:33:41.610Z,25.70
2018-08-09T00:36:12.619Z,25.60
2018-08-09T00:38:43.618Z,25.60
2018-08-09T00:41:14.791Z,25.60
2018-08-09T00:43:46.015Z,25.50
2018-08-09T00:46:17.394Z,25.50
2018-08-09T00:48:48.586Z,25.50
2018-08-09T00:51:20.073Z,25.50
2018-08-09T00:53:52.001Z,25.50
2018-08-09T00:56:23.340Z,25.40
2018-08-09T00:58:54.859Z,25.40
2018-08-09T01:01:26.123Z,25.30
2018-08-09T01:03:57.296Z,25.40
2018-08-09T01:06:28.692Z,25.30
2018-08-09T01:09:07.444Z,25.30
2018-08-09T01:11:39.130Z,25.30
2018-08-09T01:14:10.387Z,25.20
2018-08-09T01:16:41.702Z,25.20
2018-08-09T01:19:12.688Z,25.20
2018-08-09T01:21:43.957Z,25.20
2018-08-09T01:24:15.926Z,25.20
2018-08-09T01:26:47.108Z,25.20
2018-08-09T01:29:18.502Z,25.20
2018-08-09T01:31:49.652Z,25.10
2018-08-09T01:34:20.838Z,25.10
2018-08-09T01:36:52.225Z,25.10
2018-08-09T01:39:23.586Z,25.10
2018-08-09T01:42:10.725Z,25.00
2018-08-09T01:44:41.900Z,25.00
2018-08-09T01:47:12.915Z,25.00
2018-08-09T01:49:44.095Z,24.90
2018-08-09T01:52:15.523Z,24.90
2018-08-09T01:54:46.866Z,24.90
2018-08-09T01:57:17.868Z,24.80
2018-08-09T01:59:49.492Z,24.70
2018-08-09T02:02:20.440Z,24.90
2018-08-09T02:04:51.646Z,25.00
2018-08-09T02:07:23.616Z,24.90
2018-08-09T02:09:55.044Z,24.80
2018-08-09T02:12:26.448Z,24.80
2018-08-09T02:14:58.261Z,24.80
2018-08-09T02:17:29.643Z,24.80
2018-08-09T02:20:00.737Z,24.80
2018-08-09T02:22:32.032Z,24.80
2018-08-09T02:25:04.121Z,24.80
2018-08-09T02:27:35.565Z,24.70
2018-08-09T02:30:07.609Z,24.70
2018-08-09T02:32:38.887Z,24.70
2018-08-09T02:35:10.359Z,24.60
2018-08-09T02:37:41.652Z,24.50
2018-08-09T02:40:12.839Z,24.50
2018-08-09T02:42:44.056Z,24.50
2018-08-09T02:45:15.401Z,24.40
2018-08-09T02:47:46.616Z,24.40
2018-08-09T02:50:17.587Z,24.40
2018-08-09T02:52:48.823Z,24.40
2018-08-09T02:55:20.183Z,24.40
2018-08-09T02:57:51.479Z,24.30
2018-08-09T03:00:22.743Z,24.20
2018-08-09T03:02:53.979Z,24.10
2018-08-09T03:05:25.340Z,24.10
2018-08-09T03:07:56.387Z,24.10
2018-08-09T03:10:27.707Z,24.10
2018-08-09T03:12:58.732Z,24.00
2018-08-09T03:15:30.128Z,24.10
2018-08-09T03:18:01.303Z,24.20
2018-08-09T03:20:32.299Z,24.20
2018-08-09T03:23:03.507Z,24.20
2018-08-09T03:25:34.856Z,24.10
2018-08-09T03:28:05.972Z,24.10
2018-08-09T03:30:37.263Z,24.00
2018-08-09T03:33:08.764Z,24.10
2018-08-09T03:35:40.028Z,24.00
2018-08-09T03:38:11.016Z,24.10
2018-08-09T03:40:42.505Z,24.00
2018-08-09T03:43:13.852Z,23.90
2018-08-09T03:45:45.030Z,23.90
2018-08-09T03:48:16.372Z,23.90
2018-08-09T03:50:47.566Z,23.90
2018-08-09T03:53:18.772Z,23.90
2018-08-09T03:55:49.797Z,23.90
2018-08-09T03:58:21.537Z,24.00
2018-08-09T04:00:52.569Z,24.10
2018-08-09T04:03:24.192Z,24.10
2018-08-09T04:05:55.487Z,24.10
2018-08-09T04:08:26.701Z,24.20
2018-08-09T04:10:57.708Z,24.10
2018-08-09T04:13:29.189Z,23.70
2018-08-09T04:16:00.282Z,23.30
2018-08-09T04:18:31.465Z,23.00
2018-08-09T04:21:02.675Z,22.80
2018-08-09T04:28:21.537Z,22.60
2018-08-09T04:30:52.959Z,22.40
2018-08-09T04:33:24.307Z,22.40
2018-08-09T04:35:55.707Z,22.40
2018-08-09T04:38:26.848Z,22.30
2018-08-09T04:40:58.037Z,22.30
2018-08-09T04:43:29.031Z,22.30
2018-08-09T04:46:00.291Z,22.30
2018-08-09T04:48:32.263Z,22.30
2018-08-09T04:51:03.586Z,22.30
2018-08-09T04:53:34.648Z,22.30
2018-08-09T04:56:05.921Z,22.40
2018-08-09T04:58:36.952Z,22.30
2018-08-09T05:01:09.001Z,22.30
2018-08-09T05:03:40.985Z,22.10
2018-08-09T05:06:12.383Z,22.00
2018-08-09T05:08:43.911Z,21.90
2018-08-09T05:11:15.080Z,21.90
2018-08-09T05:13:46.264Z,21.90
2018-08-09T05:16:17.461Z,21.90
2018-08-09T05:18:48.638Z,22.00
2018-08-09T05:21:19.671Z,22.00
2018-08-09T05:23:51.014Z,22.10
2018-08-09T05:26:22.061Z,22.00
2018-08-09T05:28:53.227Z,22.00
2018-08-09T05:31:24.781Z,22.00
2018-08-09T05:33:55.857Z,22.00
2018-08-09T05:36:27.218Z,22.00
2018-08-09T05:38:58.584Z,22.00
2018-08-09T05:41:29.747Z,21.90
2018-08-09T05:44:00.944Z,21.80
2018-08-09T05:46:32.366Z,21.70
2018-08-09T05:49:03.918Z,21.70
2018-08-09T05:51:34.936Z,21.60
2018-08-09T05:54:06.607Z,21.70
2018-08-09T05:56:37.723Z,21.60
2018-08-09T05:59:08.691Z,21.70
2018-08-09T06:02:44.052Z,21.70
2018-08-09T06:05:15.362Z,21.70
2018-08-09T06:07:46.624Z,21.60
2018-08-09T06:10:17.986Z,21.60
2018-08-09T06:12:49.398Z,21.50
2018-08-09T06:15:20.554Z,21.50
2018-08-09T06:17:51.903Z,21.60
2018-08-09T06:20:23.121Z,21.60
2018-08-09T06:22:54.163Z,21.60
2018-08-09T06:25:25.807Z,21.60
2018-08-09T06:27:57.104Z,21.60
2018-08-09T06:30:28.391Z,21.60
2018-08-09T06:33:00.312Z,21.40
2018-08-09T06:35:31.954Z,21.30
2018-08-09T06:38:03.509Z,21.30
2018-08-09T06:40:35.558Z,21.30
2018-08-09T06:43:07.577Z,21.20
2018-08-09T06:45:39.361Z,21.20
2018-08-09T06:48:11.212Z,21.30
2018-08-09T06:50:43.419Z,21.30
2018-08-09T06:53:14.983Z,21.30
2018-08-09T06:55:46.653Z,21.20
2018-08-09T06:58:18.264Z,21.10
2018-08-09T07:00:50.099Z,21.00
2018-08-09T07:03:22.083Z,20.90
2018-08-09T07:05:53.446Z,20.80
2018-08-09T07:08:24.799Z,20.80
2018-08-09T07:10:56.251Z,20.90
2018-08-09T07:13:27.556Z,20.90
2018-08-09T07:15:58.771Z,20.80
2018-08-09T07:18:30.791Z,20.90
2018-08-09T07:21:01.913Z,21.00
2018-08-09T07:23:33.179Z,20.90
2018-08-09T07:26:04.311Z,20.80
2018-08-09T07:28:35.484Z,20.80
2018-08-09T07:31:06.496Z,20.70
2018-08-09T07:33:38.848Z,20.60
2018-08-09T07:36:09.940Z,20.70
2018-08-09T07:38:41.553Z,20.80
2018-08-09T07:41:12.661Z,20.70
2018-08-09T07:43:43.866Z,20.80
2018-08-09T07:46:15.496Z,20.80
2018-08-09T07:48:46.888Z,20.80
2018-08-09T07:51:17.993Z,20.80
2018-08-09T07:53:49.027Z,20.70
2018-08-09T07:56:20.392Z,20.70
2018-08-09T07:58:51.419Z,20.70
2018-08-09T08:01:23.044Z,20.90
2018-08-09T08:03:54.430Z,21.00
2018-08-09T08:06:25.975Z,21.00
2018-08-09T08:08:57.175Z,21.00
2018-08-09T08:11:28.497Z,21.00
2018-08-09T08:13:59.727Z,21.00
2018-08-09T08:16:31.130Z,21.00
2018-08-09T08:19:02.384Z,21.00
2018-08-09T08:21:33.584Z,21.00
2018-08-09T08:24:04.809Z,21.00
2018-08-09T08:26:36.062Z,21.10
2018-08-09T08:29:07.421Z,21.10
2018-08-09T08:31:38.655Z,21.10
2018-08-09T08:34:09.933Z,21.10
2018-08-09T08:36:41.025Z,21.20
2018-08-09T08:39:12.145Z,21.20
2018-08-09T08:41:43.257Z,21.30
2018-08-09T08:44:14.604Z,21.30
2018-08-09T08:46:45.639Z,21.30
2018-08-09T08:49:17.030Z,21.30
2018-08-09T08:51:48.695Z,21.40
2018-08-09T08:54:19.727Z,21.40
2018-08-09T08:56:50.933Z,21.40
2018-08-09T08:59:22.154Z,21.50
2018-08-09T09:01:53.441Z,21.60
2018-08-09T09:04:24.828Z,21.50
2018-08-09T09:06:56.097Z,21.70
2018-08-09T09:09:27.092Z,21.70
2018-08-09T09:11:58.156Z,21.60
2018-08-09T09:14:29.497Z,21.60
2018-08-09T09:17:00.699Z,21.60
2018-08-09T09:20:34.495Z,21.50
2018-08-09T09:23:06.073Z,21.50
2018-08-09T09:25:37.184Z,21.50
2018-08-09T09:28:09.202Z,21.50
2018-08-09T09:30:40.371Z,21.50
2018-08-09T09:33:11.912Z,21.50
2018-08-09T09:35:43.108Z,21.60
2018-08-09T09:38:14.111Z,21.80
2018-08-09T09:40:45.287Z,22.00
2018-08-09T09:43:16.886Z,22.20
2018-08-09T09:45:47.979Z,22.30
2018-08-09T09:48:19.290Z,22.30
2018-08-09T09:50:50.667Z,22.10
2018-08-09T09:53:21.713Z,22.10
2018-08-09T09:55:53.081Z,22.20
2018-08-09T09:58:24.662Z,22.40
2018-08-09T10:01:00.823Z,22.40
2018-08-09T10:03:32.300Z,22.40
2018-08-09T10:06:03.535Z,22.50
2018-08-09T10:08:35.169Z,22.40
2018-08-09T10:11:06.475Z,22.40
2018-08-09T10:13:37.465Z,22.40
2018-08-09T10:16:09.136Z,22.50
2018-08-09T10:18:40.421Z,22.30
2018-08-09T10:21:12.655Z,22.30
2018-08-09T10:23:44.095Z,22.40
2018-08-09T10:26:15.865Z,22.40
2018-08-09T10:28:47.055Z,22.40
2018-08-09T10:31:18.653Z,22.50
2018-08-09T10:33:49.935Z,22.40
2018-08-09T10:36:21.129Z,22.60
2018-08-09T10:38:52.657Z,22.60
2018-08-09T10:41:23.746Z,22.60
2018-08-09T10:43:55.100Z,22.60
2018-08-09T10:46:26.294Z,22.50
2018-08-09T10:48:57.566Z,22.50
2018-08-09T10:51:28.717Z,22.50
2018-08-09T10:54:00.356Z,22.40
2018-08-09T10:56:31.515Z,22.20
2018-08-09T10:59:02.701Z,22.20
2018-08-09T11:01:34.046Z,22.20
2018-08-09T11:04:05.277Z,22.10
2018-08-09T11:06:36.632Z,22.00
2018-08-09T11:09:11.539Z,21.90
2018-08-09T11:11:42.767Z,21.90
2018-08-09T11:14:13.948Z,22.00
2018-08-09T11:16:45.129Z,21.80
2018-08-09T11:19:16.316Z,21.80
2018-08-09T11:21:47.335Z,22.00
2018-08-09T11:24:18.723Z,22.20
2018-08-09T11:26:49.988Z,22.40
2018-08-09T11:29:22.265Z,22.50
2018-08-09T11:31:53.458Z,22.50
2018-08-09T11:34:24.445Z,22.40
2018-08-09T11:36:55.659Z,22.20
2018-08-09T11:39:27.662Z,22.20
2018-08-09T11:41:58.822Z,22.10
2018-08-09T11:44:30.201Z,21.90
2018-08-09T11:47:01.214Z,21.80
2018-08-09T11:49:32.567Z,21.80
2018-08-09T11:52:04.066Z,21.70
2018-08-09T11:54:35.188Z,21.70
2018-08-09T11:57:06.451Z,21.60
2018-08-09T11:59:37.530Z,21.60
2018-08-09T12:02:08.648Z,21.70
2018-08-09T12:04:40.049Z,21.70
2018-08-09T12:07:11.499Z,21.60
2018-08-09T12:09:42.512Z,21.60
2018-08-09T12:12:13.851Z,21.60
2018-08-09T12:14:45.328Z,21.60
2018-08-09T12:17:16.479Z,21.60
2018-08-09T12:19:47.688Z,21.50
2018-08-09T12:22:19.042Z,21.40
2018-08-09T12:24:50.281Z,21.20
2018-08-09T12:27:22.063Z,21.00
2018-08-09T12:29:53.447Z,21.00
2018-08-09T12:32:24.676Z,21.00
2018-08-09T12:34:55.997Z,21.00
2018-08-09T12:37:27.276Z,21.20
2018-08-09T12:39:58.913Z,21.60
2018-08-09T12:42:30.189Z,21.70
2018-08-09T12:45:01.513Z,21.70
2018-08-09T12:47:32.695Z,21.70
2018-08-09T12:50:03.957Z,21.70
2018-08-09T12:52:35.200Z,21.80
2018-08-09T12:55:07.082Z,21.60
2018-08-09T12:57:38.781Z,21.60
2018-08-09T13:00:13.439Z,21.60
2018-08-09T13:02:44.641Z,21.70
2018-08-09T13:05:15.834Z,21.90
2018-08-09T13:07:47.168Z,22.00
2018-08-09T13:10:18.479Z,21.80
2018-08-09T13:12:49.831Z,21.60
2018-08-09T13:15:20.979Z,21.30
2018-08-09T13:17:52.186Z,21.20
2018-08-09T13:20:23.459Z,21.00
2018-08-09T13:22:54.628Z,20.80
2018-08-09T13:25:26.713Z,20.70
2018-08-09T13:28:01.431Z,20.40
2018-08-09T13:30:32.899Z,20.10
2018-08-09T13:33:04.186Z,20.10
2018-08-09T13:35:36.256Z,20.10
2018-08-09T13:38:07.441Z,20.10
2018-08-09T13:40:38.804Z,20.10
2018-08-09T13:43:10.230Z,20.10
2018-08-09T13:45:41.335Z,20.00
2018-08-09T13:48:12.404Z,20.00
2018-08-09T13:50:43.916Z,19.90
2018-08-09T13:53:17.956Z,19.70
2018-08-09T13:55:49.247Z,19.60
2018-08-09T13:58:21.650Z,19.60
2018-08-09T14:00:53.067Z,19.60
2018-08-09T14:03:24.530Z,19.70
2018-08-09T14:05:55.788Z,19.70
2018-08-09T14:08:26.883Z,19.60
2018-08-09T14:10:58.036Z,19.60
2018-08-09T14:13:29.299Z,19.70
2018-08-09T14:16:00.400Z,19.90
2018-08-09T14:18:31.801Z,19.90
2018-08-09T14:21:03.194Z,20.00
2018-08-09T14:23:34.563Z,20.00
2018-08-09T14:26:05.840Z,20.00
2018-08-09T14:28:37.176Z,20.00
2018-08-09T14:31:08.643Z,20.20
2018-08-09T14:33:39.944Z,20.30
2018-08-09T14:36:11.296Z,20.30
2018-08-09T14:38:42.334Z,20.40
2018-08-09T14:41:13.959Z,20.50
2018-08-09T14:43:45.063Z,20.50
2018-08-09T14:46:16.455Z,20.60
2018-08-09T14:48:47.712Z,20.60
2018-08-09T14:51:18.982Z,20.70
2018-08-09T14:53:50.296Z,20.80
2018-08-09T14:56:21.408Z,21.00
2018-08-09T14:58:52.567Z,21.10
2018-08-09T15:01:23.892Z,21.20
2018-08-09T15:03:55.301Z,21.20
2018-08-09T15:06:26.568Z,21.30
2018-08-09T15:08:57.839Z,21.30
2018-08-09T15:11:29.179Z,21.30
2018-08-09T15:14:00.713Z,21.20
2018-08-09T15:16:32.192Z,20.80
2018-08-09T15:19:03.575Z,20.40
2018-08-09T15:21:35.467Z,20.10
2018-08-09T15:24:07.328Z,19.90
2018-08-09T15:26:38.670Z,19.90
2018-08-09T15:29:10.191Z,19.60
2018-08-09T15:31:41.259Z,19.40
2018-08-09T15:34:12.611Z,19.30
2018-08-09T15:36:43.807Z,19.20
2018-08-09T15:39:15.199Z,19.20
2018-08-09T15:41:46.897Z,19.30
2018-08-09T15:44:18.108Z,19.40
2018-08-09T15:46:49.286Z,19.60
2018-08-09T15:49:20.409Z,19.80
2018-08-09T15:51:51.810Z,19.80
2018-08-09T15:54:23.799Z,19.80
2018-08-09T15:56:54.977Z,19.80
2018-08-09T15:59:26.717Z,19.80
2018-08-09T16:01:58.113Z,19.70
2018-08-09T16:04:29.343Z,19.60
2018-08-09T16:07:00.863Z,19.60
2018-08-09T16:09:31.954Z,19.60
2018-08-09T16:12:03.212Z,19.80
2018-08-09T16:14:34.463Z,19.90
2018-08-09T16:17:05.994Z,19.90
2018-08-09T16:19:37.224Z,19.90
2018-08-09T16:22:08.470Z,20.00
2018-08-09T16:24:39.656Z,20.00
2018-08-09T16:27:13.035Z,19.90
2018-08-09T16:29:44.406Z,20.00
2018-08-09T16:32:15.824Z,19.90
2018-08-09T16:34:46.988Z,19.90
2018-08-09T16:37:18.689Z,19.90
2018-08-09T16:39:49.791Z,19.90
2018-08-09T16:42:20.980Z,19.90
2018-08-09T16:44:53.061Z,19.90
2018-08-09T16:47:24.191Z,19.90
2018-08-09T16:49:55.360Z,20.10
2018-08-09T16:52:27.681Z,20.10
2018-08-09T16:54:58.936Z,20.10
2018-08-09T16:57:30.308Z,20.10
2018-08-09T17:00:01.600Z,20.00
2018-08-09T17:02:33.076Z,20.00
2018-08-09T17:05:04.472Z,20.00
2018-08-09T17:07:35.756Z,20.00
2018-08-09T17:10:08.096Z,20.00
2018-08-09T17:12:40.029Z,20.00
2018-08-09T17:15:14.935Z,20.00
2018-08-09T17:17:46.247Z,20.10
2018-08-09T17:20:23.551Z,20.00
2018-08-09T17:22:54.974Z,20.00
2018-08-09T17:25:26.277Z,20.10
2018-08-09T17:27:57.661Z,20.10
2018-08-09T17:30:29.505Z,20.10
2018-08-09T17:33:01.313Z,20.10
2018-08-09T17:35:32.845Z,20.10
2018-08-09T17:38:06.235Z,20.20
2018-08-09T17:40:37.706Z,20.20
2018-08-09T17:43:08.987Z,20.20
2018-08-09T17:45:40.208Z,20.20
2018-08-09T17:48:11.619Z,20.20
2018-08-09T17:50:42.867Z,20.20
2018-08-09T17:53:14.480Z,20.40
2018-08-09T17:55:45.584Z,20.40
2018-08-09T17:58:16.904Z,20.40
2018-08-09T18:00:48.038Z,20.50
2018-08-09T18:03:19.748Z,20.40
2018-08-09T18:05:50.983Z,20.50
2018-08-09T18:08:22.195Z,20.60
2018-08-09T18:10:53.378Z,20.70
2018-08-09T18:13:25.413Z,20.60
2018-08-09T18:15:57.108Z,20.60
2018-08-09T18:18:28.409Z,20.60
2018-08-09T18:21:00.039Z,20.60
2018-08-09T18:23:31.401Z,20.60
2018-08-09T18:26:02.783Z,20.60
2018-08-09T18:28:33.991Z,20.50
2018-08-09T18:31:05.293Z,20.40
2018-08-09T18:33:36.566Z,20.40
2018-08-09T18:36:08.063Z,20.40
2018-08-09T18:38:39.225Z,20.30
2018-08-09T18:41:10.406Z,20.30
2018-08-09T18:43:41.614Z,20.20
2018-08-09T18:46:12.756Z,20.30
2018-08-09T18:48:44.066Z,20.20
2018-08-09T18:51:15.536Z,20.20
2018-08-09T18:53:46.801Z,20.30
2018-08-09T18:56:18.098Z,20.20
2018-08-09T18:58:49.484Z,20.20
2018-08-09T19:01:20.801Z,20.20
2018-08-09T19:03:52.053Z,20.20
2018-08-09T19:06:23.435Z,20.20
2018-08-09T19:08:55.036Z,20.20
2018-08-09T19:11:27.021Z,20.20
2018-08-09T19:13:58.335Z,20.30
2018-08-09T19:16:29.555Z,20.20
2018-08-09T19:19:00.787Z,20.20
2018-08-09T19:21:32.307Z,20.20
2018-08-09T19:24:03.892Z,20.20
2018-08-09T19:26:35.268Z,20.20
2018-08-09T19:29:06.689Z,20.20
2018-08-09T19:31:38.045Z,20.30
2018-08-09T19:34:09.413Z,20.30
2018-08-09T19:36:40.600Z,20.10
2018-08-09T19:39:14.787Z,20.20
2018-08-09T19:41:46.292Z,20.20
2018-08-09T19:44:17.399Z,20.20
2018-08-09T19:46:48.851Z,20.20
2018-08-09T19:49:20.097Z,20.10
2018-08-09T19:51:51.192Z,20.20
2018-08-09T19:54:22.592Z,20.20
2018-08-09T19:56:54.197Z,20.20
2018-08-09T19:59:25.863Z,20.30
2018-08-09T20:01:57.118Z,20.30
2018-08-09T20:04:28.497Z,20.20
2018-08-09T20:07:00.156Z,20.10
2018-08-09T20:09:31.342Z,20.10
2018-08-09T20:12:03.154Z,20.00
2018-08-09T20:14:34.515Z,20.00
2018-08-09T20:17:06.116Z,20.00
2018-08-09T20:19:37.252Z,20.00
2018-08-09T20:22:16.619Z,20.00
2018-08-09T20:25:51.130Z,19.90
2018-08-09T20:28:22.585Z,20.00
2018-08-09T20:30:54.539Z,20.00
2018-08-09T20:33:25.959Z,19.90
2018-08-09T20:35:57.208Z,19.80
2018-08-09T20:38:28.510Z,19.80
2018-08-09T20:40:59.657Z,19.80
2018-08-09T20:43:30.913Z,19.80
2018-08-09T20:46:02.112Z,19.80
2018-08-09T20:48:33.959Z,19.80
2018-08-09T20:51:05.139Z,19.90
2018-08-09T20:53:36.281Z,19.80
2018-08-09T20:56:07.708Z,19.80
2018-08-09T20:58:38.815Z,19.80
2018-08-09T21:01:10.123Z,19.70
2018-08-09T21:03:41.637Z,19.80
2018-08-09T21:06:12.859Z,19.80
2018-08-09T21:08:44.065Z,19.80
2018-08-09T21:11:15.337Z,19.70
2018-08-09T21:13:46.792Z,19.70
2018-08-09T21:16:18.453Z,19.60
2018-08-09T21:18:49.529Z,19.50
2018-08-09T21:21:20.951Z,19.60
2018-08-09T21:23:52.270Z,19.60
2018-08-09T21:26:23.537Z,19.50
2018-08-09T21:28:55.832Z,19.50
2018-08-09T21:31:27.379Z,19.50
2018-08-09T21:33:58.883Z,19.50
2018-08-09T21:36:30.195Z,19.60
2018-08-09T21:39:01.258Z,19.60
2018-08-09T21:41:32.612Z,19.60
2018-08-09T21:44:04.118Z,19.60
2018-08-09T21:46:35.355Z,19.70
2018-08-09T21:49:06.575Z,19.70
2018-08-09T21:51:37.972Z,19.80
2018-08-09T21:54:09.363Z,19.80
2018-08-09T21:56:40.557Z,19.70
2018-08-09T21:59:11.759Z,19.70
2018-08-09T22:01:43.279Z,19.70
2018-08-09T22:04:14.480Z,19.70
2018-08-09T22:06:50.729Z,19.80
2018-08-09T22:09:26.842Z,19.70
2018-08-09T22:12:03.043Z,19.80
2018-08-09T22:14:39.102Z,19.80
2018-08-09T22:17:15.023Z,19.70
2018-08-09T22:19:51.908Z,19.70
2018-08-09T22:22:24.917Z,19.80
2018-08-09T22:24:56.316Z,19.80
2018-08-09T22:27:27.685Z,19.80
2018-08-09T22:29:59.383Z,19.80
2018-08-09T22:32:31.640Z,19.80
2018-08-09T22:35:03.011Z,19.70
2018-08-09T22:37:34.288Z,19.70
2018-08-09T22:40:06.047Z,19.70
2018-08-09T22:42:37.653Z,19.70
2018-08-09T22:45:08.963Z,19.60
2018-08-09T22:47:40.262Z,19.60
2018-08-09T22:50:12.174Z,19.60
2018-08-09T22:52:43.599Z,19.60
2018-08-09T22:55:15.307Z,19.60
2018-08-09T22:57:46.539Z,19.60
2018-08-09T23:00:24.896Z,19.60
2018-08-09T23:02:56.490Z,19.60
2018-08-09T23:05:30.692Z,19.60
2018-08-09T23:08:02.172Z,19.60
2018-08-09T23:10:33.419Z,19.60
2018-08-09T23:13:04.736Z,19.50
2018-08-09T23:15:36.053Z,19.50
2018-08-09T23:18:08.112Z,19.50
2018-08-09T23:20:39.592Z,19.50
2018-08-09T23:23:10.851Z,19.50
2018-08-09T23:25:42.156Z,19.40
2018-08-09T23:28:13.512Z,19.40
2018-08-09T23:30:45.047Z,19.50
2018-08-09T23:33:17.612Z,19.40
2018-08-09T23:35:49.174Z,19.40
2018-08-09T23:38:20.520Z,19.40
2018-08-09T23:40:51.942Z,19.40
2018-08-09T23:43:23.106Z,19.50
2018-08-09T23:45:54.487Z,19.40
2018-08-09T23:48:25.684Z,19.30
2018-08-09T23:50:57.021Z,19.40
2018-08-09T23:53:28.163Z,19.30
2018-08-09T23:55:59.705Z,19.30
2018-08-09T23:58:30.860Z,19.30
